Miller Field Valentine US
ICAO: KVTN
IATA: VTN
Category: Medium
Scheduled Services: No

Elevation: 2596 ft
TransAlt. 18000 ft.

Airport Communications:
ASOS:118.075
DENVER CNTR:127.95
CTAF/UNICOM:122.8

KVTN Zoom In..

If you have problems with the map follow the link
https://www.worldairports.se/pages/airport.php?
ICAO=KVTN

Runways:

(A) RW 03 length 3701 ft width 60 ft
---- / hdg 28

(B) RW 14 length 4704 ft width 75 ft
---- / hdg 137

(C) RW 21 length 3701 ft width 60 ft
---- / hdg 208

(D) RW 32 length 4704 ft width 75 ft
---- / hdg 317

Location; KVTN
Day. 19 / Time. 19.52 Zulu
* Altimeter: 30.54
* Temperature: -07° c. -19.4°f.
* Wind from: 080° Speed 03 kn.
Dewpoint: -16° c.
Visibility: 10 Statute Miles.
Clouds: Few 2600 ft.
Clouds: Broken 9500 ft.

KVTN 191952Z AUTO 08003KT 10SM FEW026 BKN095 M07/M16 A3054 RMK AO2 SLP387 T10721156


Wind From 080°
Speed 03 kn.

 
 
jpsmedia worldairports.se 2020   terms of use